createdAt,value
2018-09-23T00:03:03.916Z,8.63
2018-09-23T00:05:38.126Z,6.07
2018-09-23T00:08:12.613Z,6.87
2018-09-23T00:10:47.134Z,5.73
2018-09-23T00:13:21.246Z,5.27
2018-09-23T00:15:55.813Z,5.77
2018-09-23T00:18:30.435Z,4.90
2018-09-23T00:21:05.072Z,5.87
2018-09-23T00:23:46.965Z,4.37
2018-09-23T00:35:25.577Z,4.43
2018-09-23T00:38:03.108Z,3.57
2018-09-23T00:40:43.965Z,4.27
2018-09-23T00:46:17.976Z,4.87
2018-09-23T00:48:52.813Z,7.10
2018-09-23T00:51:30.244Z,4.23
2018-09-23T00:54:19.253Z,8.03
2018-09-23T00:56:53.594Z,3.80
2018-09-23T00:59:36.627Z,4.97
2018-09-23T01:02:14.505Z,6.03
2018-09-23T01:04:49.436Z,5.97
2018-09-23T01:07:24.433Z,4.93
2018-09-23T01:09:59.403Z,6.83
2018-09-23T01:12:34.428Z,6.33
2018-09-23T01:15:56.957Z,5.87
2018-09-23T01:18:32.824Z,4.27
2018-09-23T01:21:09.189Z,5.47
2018-09-23T01:23:44.824Z,11.73
2018-09-23T01:26:19.960Z,3.60
2018-09-23T01:31:37.094Z,7.37
2018-09-23T01:34:12.641Z,6.97
2018-09-23T01:36:47.675Z,5.80
2018-09-23T01:39:24.451Z,4.90
2018-09-23T01:42:01.066Z,6.13
2018-09-23T01:44:35.952Z,6.67
2018-09-23T01:47:15.242Z,3.97
2018-09-23T01:49:49.589Z,5.53
2018-09-23T01:55:15.625Z,6.53
2018-09-23T01:57:51.006Z,6.10
2018-09-23T02:00:25.978Z,7.87
2018-09-23T02:03:07.909Z,7.60
2018-09-23T02:05:42.717Z,6.87
2018-09-23T02:08:23.483Z,5.00
2018-09-23T02:10:58.411Z,7.00
2018-09-23T02:13:35.948Z,5.97
2018-09-23T02:16:22.710Z,6.40
2018-09-23T02:18:57.459Z,8.20
2018-09-23T02:21:32.186Z,8.03
2018-09-23T02:24:07.004Z,6.80
2018-09-23T02:26:49.112Z,5.13
2018-09-23T02:29:23.737Z,6.70
2018-09-23T02:32:02.969Z,7.60
2018-09-23T02:34:38.322Z,6.90
2018-09-23T02:37:14.023Z,5.43
2018-09-23T02:40:23.994Z,7.13
2018-09-23T02:42:58.194Z,5.57
2018-09-23T02:45:33.959Z,3.50
2018-09-23T02:50:49.629Z,5.63
2018-09-23T02:53:28.071Z,4.57
2018-09-23T02:56:05.665Z,4.93
2018-09-23T02:58:42.644Z,5.73
2018-09-23T03:01:17.578Z,6.40
2018-09-23T03:03:56.151Z,5.00
2018-09-23T03:06:30.518Z,4.93
2018-09-23T03:10:42.258Z,5.27
2018-09-23T03:13:18.614Z,6.97
2018-09-23T03:15:55.314Z,6.70
2018-09-23T03:18:31.961Z,5.40
2018-09-23T03:21:07.308Z,4.87
2018-09-23T03:23:41.325Z,7.40
2018-09-23T03:26:16.838Z,3.03
2018-09-23T03:28:52.616Z,4.27
2018-09-23T03:31:27.435Z,6.20
2018-09-23T03:39:47.647Z,6.57
2018-09-23T03:42:37.426Z,5.57
2018-09-23T03:46:15.762Z,6.20
2018-09-23T03:48:50.757Z,4.53
2018-09-23T03:51:25.795Z,2.97
2018-09-23T03:54:00.015Z,6.07
2018-09-23T03:56:33.906Z,5.23
2018-09-23T03:59:08.548Z,3.00
2018-09-23T04:01:42.517Z,3.37
2018-09-23T04:04:16.605Z,3.60
2018-09-23T04:06:50.439Z,5.43
2018-09-23T04:09:24.373Z,2.83
2018-09-23T04:11:58.206Z,3.40
2018-09-23T04:14:32.365Z,3.30
2018-09-23T04:17:06.390Z,3.70
2018-09-23T04:19:40.296Z,3.60
2018-09-23T04:22:14.262Z,3.03
2018-09-23T04:24:48.263Z,3.93
2018-09-23T04:27:22.368Z,3.00
2018-09-23T04:29:56.183Z,4.00
2018-09-23T04:32:30.127Z,2.03
2018-09-23T04:35:03.979Z,3.17
2018-09-23T04:37:38.016Z,5.10
2018-09-23T04:40:12.176Z,3.73
2018-09-23T04:42:47.750Z,4.17
2018-09-23T04:45:22.983Z,5.70
2018-09-23T04:47:57.506Z,3.67
2018-09-23T04:50:31.531Z,3.77
2018-09-23T04:57:33.848Z,2.43
2018-09-23T05:00:07.819Z,3.73
2018-09-23T05:02:41.793Z,2.90
2018-09-23T05:05:15.907Z,2.13
2018-09-23T05:07:49.786Z,2.63
2018-09-23T05:10:23.695Z,3.00
2018-09-23T05:12:57.645Z,3.13
2018-09-23T05:15:31.601Z,1.90
2018-09-23T05:18:06.445Z,2.00
2018-09-23T05:20:40.300Z,3.60
2018-09-23T05:23:14.215Z,1.33
2018-09-23T05:25:49.678Z,4.27
2018-09-23T05:28:23.721Z,2.67
2018-09-23T05:30:57.747Z,2.67
2018-09-23T05:33:31.845Z,2.37
2018-09-23T05:36:05.760Z,2.20
2018-09-23T05:38:39.599Z,2.27
2018-09-23T05:41:13.440Z,2.73
2018-09-23T05:43:47.888Z,2.73
2018-09-23T05:46:21.929Z,4.60
2018-09-23T05:48:55.881Z,3.43
2018-09-23T05:51:29.838Z,3.27
2018-09-23T05:54:03.926Z,3.27
2018-09-23T05:56:38.035Z,2.47
2018-09-23T05:59:12.063Z,2.63
2018-09-23T06:01:46.041Z,2.20
2018-09-23T06:04:19.939Z,4.67
2018-09-23T06:06:53.990Z,3.77
2018-09-23T06:09:28.021Z,2.90
2018-09-23T06:12:02.143Z,3.13
2018-09-23T06:14:36.161Z,4.20
2018-09-23T06:17:10.317Z,1.67
2018-09-23T06:19:44.100Z,3.53
2018-09-23T06:22:17.964Z,4.00
2018-09-23T06:24:51.869Z,2.67
2018-09-23T06:27:25.877Z,2.00
2018-09-23T06:29:59.814Z,3.43
2018-09-23T06:32:33.775Z,3.47
2018-09-23T06:35:07.641Z,4.63
2018-09-23T06:37:42.549Z,2.73
2018-09-23T06:40:16.582Z,1.83
2018-09-23T06:42:50.627Z,2.23
2018-09-23T06:45:24.647Z,3.77
2018-09-23T06:47:58.669Z,3.63
2018-09-23T06:50:32.511Z,3.03
2018-09-23T06:53:06.954Z,3.20
2018-09-23T06:55:41.603Z,2.20
2018-09-23T06:58:15.674Z,4.80
2018-09-23T07:00:49.804Z,4.17
2018-09-23T07:03:23.699Z,2.13
2018-09-23T07:05:57.501Z,2.37
2018-09-23T07:08:31.489Z,1.33
2018-09-23T07:11:05.587Z,1.17
2018-09-23T07:13:39.425Z,1.73
2018-09-23T07:16:13.456Z,0.93
2018-09-23T07:18:47.412Z,1.23
2018-09-23T07:21:21.268Z,1.90
2018-09-23T07:23:55.252Z,1.30
2018-09-23T07:26:29.047Z,2.43
2018-09-23T07:29:03.062Z,0.93
2018-09-23T07:31:36.809Z,1.27
2018-09-23T07:34:10.915Z,2.90
2018-09-23T07:36:44.797Z,0.70
2018-09-23T07:39:18.631Z,1.77
2018-09-23T07:41:52.639Z,1.53
2018-09-23T07:44:26.376Z,0.83
2018-09-23T07:47:00.589Z,2.60
2018-09-23T07:49:34.552Z,1.43
2018-09-23T07:52:08.641Z,1.40
2018-09-23T07:54:42.578Z,1.20
2018-09-23T07:57:16.638Z,1.10
2018-09-23T07:59:51.442Z,1.40
2018-09-23T08:02:25.420Z,1.47
2018-09-23T08:04:59.220Z,0.73
2018-09-23T08:07:33.203Z,1.40
2018-09-23T08:10:07.470Z,0.67
2018-09-23T08:12:41.583Z,1.53
2018-09-23T08:15:15.419Z,0.67
2018-09-23T08:17:49.226Z,2.07
2018-09-23T08:20:23.231Z,1.40
2018-09-23T08:22:57.353Z,0.50
2018-09-23T08:25:31.353Z,1.90
2018-09-23T08:28:05.101Z,0.83
2018-09-23T08:30:39.049Z,1.03
2018-09-23T08:33:13.084Z,3.00
2018-09-23T08:35:46.981Z,2.53
2018-09-23T08:38:20.910Z,1.07
2018-09-23T08:40:54.754Z,1.40
2018-09-23T08:43:28.748Z,1.17
2018-09-23T08:46:03.156Z,0.83
2018-09-23T08:48:37.085Z,2.63
2018-09-23T08:51:11.217Z,0.47
2018-09-23T08:53:45.203Z,2.03
2018-09-23T08:56:19.126Z,0.90
2018-09-23T08:58:52.947Z,1.17
2018-09-23T09:01:26.894Z,1.23
2018-09-23T09:04:00.829Z,0.87
2018-09-23T09:06:34.961Z,0.67
2018-09-23T09:09:09.090Z,0.40
2018-09-23T09:11:43.086Z,0.70
2018-09-23T09:14:17.133Z,2.97
2018-09-23T09:16:51.043Z,0.37
2018-09-23T09:19:25.149Z,0.40
2018-09-23T09:21:59.008Z,0.77
2018-09-23T09:24:33.017Z,1.07
2018-09-23T09:27:06.927Z,0.73
2018-09-23T09:29:40.872Z,1.70
2018-09-23T09:32:14.772Z,0.83
2018-09-23T09:34:48.577Z,1.97
2018-09-23T09:37:22.585Z,0.50
2018-09-23T09:39:56.744Z,0.53
2018-09-23T09:42:30.701Z,1.83
2018-09-23T09:45:04.662Z,0.13
2018-09-23T09:47:38.434Z,0.70
2018-09-23T09:50:12.488Z,0.67
2018-09-23T09:52:46.518Z,0.73
2018-09-23T09:55:20.677Z,2.43
2018-09-23T09:57:54.664Z,0.90
2018-09-23T10:00:34.375Z,0.20
2018-09-23T10:03:08.135Z,1.00
2018-09-23T10:05:42.117Z,0.50
2018-09-23T10:08:16.047Z,1.77
2018-09-23T10:10:50.103Z,0.47
2018-09-23T10:13:24.065Z,0.50
2018-09-23T10:15:58.142Z,0.40
2018-09-23T10:18:32.236Z,0.23
2018-09-23T10:21:06.037Z,0.87
2018-09-23T10:23:39.966Z,0.87
2018-09-23T10:26:13.731Z,0.30
2018-09-23T10:28:47.680Z,2.20
2018-09-23T10:31:21.730Z,0.33
2018-09-23T10:33:55.509Z,0.70
2018-09-23T10:36:30.634Z,0.40
2018-09-23T10:39:06.671Z,3.63
2018-09-23T10:41:40.590Z,0.40
2018-09-23T10:44:14.579Z,0.33
2018-09-23T10:46:48.371Z,1.73
2018-09-23T10:49:22.343Z,0.77
2018-09-23T10:51:56.337Z,1.93
2018-09-23T10:54:31.309Z,0.63
2018-09-23T10:57:05.284Z,0.43
2018-09-23T10:59:39.413Z,0.50
2018-09-23T11:02:13.518Z,0.40
2018-09-23T11:04:47.516Z,0.60
2018-09-23T11:07:21.503Z,2.03
2018-09-23T11:09:55.539Z,0.80
2018-09-23T11:12:29.464Z,0.30
2018-09-23T11:15:03.443Z,0.40
2018-09-23T11:17:37.217Z,1.03
2018-09-23T11:20:11.246Z,0.83
2018-09-23T11:22:45.211Z,1.13
2018-09-23T11:25:19.355Z,0.37
2018-09-23T11:27:53.316Z,2.37
2018-09-23T11:30:27.372Z,0.97
2018-09-23T11:33:01.371Z,0.10
2018-09-23T11:35:35.334Z,0.40
2018-09-23T11:38:09.321Z,3.03
2018-09-23T11:40:43.308Z,0.20
2018-09-23T11:43:17.746Z,0.60
2018-09-23T11:45:51.677Z,0.13
2018-09-23T11:48:25.440Z,1.03
2018-09-23T11:51:01.403Z,1.57
2018-09-23T11:53:37.858Z,0.67
2018-09-23T11:56:13.617Z,1.80
2018-09-23T11:58:47.917Z,0.53
2018-09-23T12:01:21.675Z,0.83
2018-09-23T12:03:55.543Z,0.57
2018-09-23T12:06:29.918Z,0.17
2018-09-23T12:09:04.789Z,1.17
2018-09-23T12:11:38.884Z,0.33
2018-09-23T12:14:12.902Z,0.57
2018-09-23T12:16:47.039Z,0.70
2018-09-23T12:19:20.980Z,0.50
2018-09-23T12:21:55.042Z,1.33
2018-09-23T12:24:28.817Z,2.57
2018-09-23T12:27:03.050Z,0.93
2018-09-23T12:29:36.976Z,2.00
2018-09-23T12:32:10.762Z,0.40
2018-09-23T12:34:44.800Z,0.70
2018-09-23T12:37:18.831Z,0.70
2018-09-23T12:39:52.783Z,0.87
2018-09-23T12:42:26.653Z,2.13
2018-09-23T12:45:00.562Z,0.27
2018-09-23T12:47:34.483Z,0.20
2018-09-23T12:50:08.699Z,0.10
2018-09-23T12:52:42.554Z,0.93
2018-09-23T12:55:16.527Z,0.33
2018-09-23T12:57:50.489Z,0.33
2018-09-23T13:00:24.364Z,1.17
2018-09-23T13:02:58.230Z,0.70
2018-09-23T13:05:32.233Z,1.70
2018-09-23T13:08:07.827Z,0.70
2018-09-23T13:10:41.910Z,1.60
2018-09-23T13:13:15.680Z,0.93
2018-09-23T13:15:49.813Z,1.00
2018-09-23T13:18:23.628Z,0.73
2018-09-23T13:20:57.813Z,0.20
2018-09-23T13:23:31.872Z,0.60
2018-09-23T13:26:05.897Z,1.17
2018-09-23T13:28:39.872Z,0.50
2018-09-23T13:31:20.403Z,0.40
2018-09-23T13:33:54.331Z,1.00
2018-09-23T13:36:29.036Z,0.37
2018-09-23T13:39:03.349Z,0.10
2018-09-23T13:41:37.231Z,0.43
2018-09-23T13:44:11.359Z,0.80
2018-09-23T13:46:45.506Z,0.90
2018-09-23T13:49:20.129Z,0.10
2018-09-23T13:51:53.991Z,6.23
2018-09-23T13:54:28.054Z,1.17
2018-09-23T13:57:01.815Z,2.83
2018-09-23T13:59:35.567Z,2.40
2018-09-23T14:02:09.457Z,1.70
2018-09-23T14:04:43.408Z,1.90
2018-09-23T14:07:17.092Z,0.40
2018-09-23T14:09:50.813Z,2.97
2018-09-23T14:12:24.683Z,0.67
2018-09-23T14:14:58.674Z,1.37
2018-09-23T14:17:32.621Z,0.63
2018-09-23T14:20:06.662Z,0.57
2018-09-23T14:22:40.588Z,0.30
2018-09-23T14:25:14.354Z,0.80
2018-09-23T14:27:48.387Z,0.30
2018-09-23T14:30:22.105Z,0.37
2018-09-23T14:32:56.015Z,4.00
2018-09-23T14:35:29.838Z,0.20
2018-09-23T14:38:03.720Z,1.23
2018-09-23T14:40:37.584Z,0.70
2018-09-23T14:43:11.573Z,0.10
2018-09-23T14:45:45.433Z,1.57
2018-09-23T14:48:19.313Z,2.63
2018-09-23T14:50:52.970Z,0.20
2018-09-23T14:53:26.854Z,0.77
2018-09-23T14:56:00.744Z,6.57
2018-09-23T14:58:34.642Z,2.13
2018-09-23T15:01:08.482Z,1.17
2018-09-23T15:03:42.394Z,0.13
2018-09-23T15:06:16.332Z,2.23
2018-09-23T15:08:50.196Z,1.03
2018-09-23T15:11:24.162Z,0.10
2018-09-23T15:13:57.972Z,3.50
2018-09-23T15:16:31.833Z,2.67
2018-09-23T15:19:05.935Z,0.10
2018-09-23T15:21:39.865Z,0.20
2018-09-23T15:24:13.829Z,1.33
2018-09-23T15:26:47.825Z,0.00
2018-09-23T15:29:21.671Z,0.10
2018-09-23T15:31:55.589Z,0.47
2018-09-23T15:34:29.243Z,1.53
2018-09-23T15:37:03.173Z,0.20
2018-09-23T15:39:36.942Z,0.90
2018-09-23T15:42:10.960Z,0.00
2018-09-23T15:44:44.654Z,0.17
2018-09-23T15:47:18.519Z,0.00
2018-09-23T15:49:52.167Z,0.37
2018-09-23T15:52:25.946Z,1.33
2018-09-23T15:54:59.725Z,0.10
2018-09-23T15:57:33.490Z,0.50
2018-09-23T16:00:07.499Z,1.23
2018-09-23T16:02:41.318Z,0.10
2018-09-23T16:05:15.191Z,0.20
2018-09-23T16:07:48.879Z,0.20
2018-09-23T16:10:22.754Z,1.83
2018-09-23T16:12:56.489Z,0.07
2018-09-23T16:15:30.508Z,1.13
2018-09-23T16:18:04.458Z,0.20
2018-09-23T16:20:38.433Z,0.57
2018-09-23T16:23:12.308Z,0.93
2018-09-23T16:25:47.193Z,0.20
2018-09-23T16:28:21.082Z,0.00
2018-09-23T16:30:54.955Z,0.00
2018-09-23T16:33:28.659Z,0.30
2018-09-23T16:36:02.635Z,0.37
2018-09-23T16:38:36.784Z,0.10
2018-09-23T16:41:10.515Z,1.50
2018-09-23T16:43:44.385Z,1.27
2018-09-23T16:46:18.230Z,0.00
2018-09-23T16:48:52.025Z,0.20
2018-09-23T16:51:25.921Z,0.47
2018-09-23T16:53:59.767Z,0.70
2018-09-23T16:56:33.691Z,0.50
2018-09-23T16:59:07.868Z,0.20
2018-09-23T17:01:41.624Z,0.30
2018-09-23T17:04:15.487Z,1.60
2018-09-23T17:06:49.463Z,0.33
2018-09-23T17:09:23.371Z,0.87
2018-09-23T17:11:57.276Z,0.30
2018-09-23T17:14:31.234Z,1.33
2018-09-23T17:17:05.176Z,0.00
2018-09-23T17:19:38.854Z,0.60
2018-09-23T17:22:12.692Z,1.50
2018-09-23T17:24:46.531Z,0.50
2018-09-23T17:27:20.362Z,0.20
2018-09-23T17:29:53.980Z,0.10
2018-09-23T17:32:27.861Z,0.00
2018-09-23T17:35:01.846Z,0.00
2018-09-23T17:37:35.467Z,0.50
2018-09-23T17:40:09.440Z,0.00
2018-09-23T17:42:43.267Z,0.00
2018-09-23T17:45:17.148Z,0.97
2018-09-23T17:47:51.342Z,0.30
2018-09-23T17:50:25.231Z,0.20
2018-09-23T17:52:59.079Z,0.30
2018-09-23T17:55:32.940Z,0.00
2018-09-23T17:58:08.395Z,0.17
2018-09-23T18:00:43.140Z,0.07
2018-09-23T18:03:17.254Z,0.20
2018-09-23T18:05:51.384Z,0.10
2018-09-23T18:08:25.338Z,0.00
2018-09-23T18:10:59.512Z,0.30
2018-09-23T18:13:33.498Z,0.00
2018-09-23T18:16:07.341Z,0.10
2018-09-23T18:18:42.237Z,0.00
2018-09-23T18:21:16.315Z,0.00
2018-09-23T18:23:50.408Z,0.10
2018-09-23T18:26:24.450Z,0.20
2018-09-23T18:28:58.772Z,0.10
2018-09-23T18:31:32.739Z,0.10
2018-09-23T18:34:07.454Z,0.10
2018-09-23T18:36:41.697Z,0.20
2018-09-23T18:39:16.846Z,0.30
2018-09-23T18:41:59.687Z,1.43
2018-09-23T18:44:35.028Z,0.20
2018-09-23T18:47:09.076Z,0.20
2018-09-23T18:49:43.474Z,0.20
2018-09-23T18:52:18.667Z,1.20
2018-09-23T18:54:58.204Z,0.37
2018-09-23T18:57:36.566Z,0.10
2018-09-23T19:00:11.952Z,0.57
2018-09-23T19:03:15.822Z,0.20
2018-09-23T19:20:39.331Z,0.00
2018-09-23T19:23:20.665Z,0.17
2018-09-23T19:28:43.485Z,1.00
2018-09-23T19:31:18.723Z,0.80
2018-09-23T19:33:53.134Z,0.20
2018-09-23T19:36:39.178Z,0.27
2018-09-23T19:39:22.953Z,0.30
2018-09-23T19:41:57.545Z,1.00
2018-09-23T19:44:31.503Z,0.43
2018-09-23T19:47:05.595Z,0.20
2018-09-23T19:49:51.490Z,0.10
2018-09-23T19:52:32.349Z,0.77
2018-09-23T20:03:40.806Z,0.20
2018-09-23T20:09:08.174Z,0.00
2018-09-23T20:11:53.747Z,0.50
2018-09-23T20:17:33.634Z,0.27
2018-09-23T20:20:07.899Z,0.30
2018-09-23T20:22:45.595Z,0.50
2018-09-23T20:25:21.736Z,0.10
2018-09-23T20:27:56.096Z,0.20
2018-09-23T20:30:30.201Z,0.60
2018-09-23T20:33:05.858Z,0.20
2018-09-23T20:35:40.480Z,0.33
2018-09-23T20:38:14.805Z,0.30
2018-09-23T20:40:48.917Z,0.27
2018-09-23T20:43:23.946Z,0.20
2018-09-23T20:45:57.928Z,0.57
2018-09-23T20:48:32.189Z,0.20
2018-09-23T20:51:06.602Z,0.30
2018-09-23T20:53:42.108Z,0.37
2018-09-23T20:56:16.873Z,0.43
2018-09-23T20:58:51.105Z,0.60
2018-09-23T21:01:26.090Z,0.10
2018-09-23T21:03:59.943Z,1.40
2018-09-23T21:06:33.885Z,0.30
2018-09-23T21:09:08.586Z,0.33
2018-09-23T21:11:42.502Z,1.27
2018-09-23T21:14:16.474Z,0.70
2018-09-23T21:16:50.558Z,0.37
2018-09-23T21:19:25.870Z,0.50
2018-09-23T21:21:59.684Z,0.20
2018-09-23T21:24:34.794Z,0.70
2018-09-23T21:27:09.086Z,0.27
2018-09-23T21:29:43.225Z,0.30
2018-09-23T21:32:18.469Z,0.47
2018-09-23T21:34:53.345Z,0.60
2018-09-23T21:37:28.177Z,0.20
2018-09-23T21:40:02.033Z,3.40
2018-09-23T21:42:36.093Z,1.37
2018-09-23T21:45:10.179Z,0.10
2018-09-23T21:47:44.266Z,1.80
2018-09-23T21:50:18.558Z,1.27
2018-09-23T21:52:53.475Z,0.30
2018-09-23T21:55:27.481Z,1.50
2018-09-23T21:58:02.314Z,0.40
2018-09-23T22:00:44.307Z,0.10
2018-09-23T22:03:18.624Z,0.50
2018-09-23T22:05:52.795Z,0.30
2018-09-23T22:08:27.485Z,0.30
2018-09-23T22:11:01.615Z,1.03
2018-09-23T22:13:36.109Z,1.30
2018-09-23T22:16:10.715Z,0.50
2018-09-23T22:18:44.618Z,3.53
2018-09-23T22:21:18.948Z,1.07
2018-09-23T22:23:54.905Z,0.70
2018-09-23T22:26:29.527Z,0.33
2018-09-23T22:29:04.706Z,1.23
2018-09-23T22:31:39.667Z,1.60
2018-09-23T22:34:13.809Z,0.57
2018-09-23T22:36:48.948Z,0.47
2018-09-23T22:39:23.096Z,0.40
2018-09-23T22:41:57.956Z,1.43
2018-09-23T22:44:31.919Z,1.03
2018-09-23T22:47:05.734Z,0.97
2018-09-23T22:49:39.779Z,0.50
2018-09-23T22:52:13.770Z,0.10
2018-09-23T22:54:47.875Z,0.93
2018-09-23T22:57:21.833Z,0.20
2018-09-23T22:59:55.898Z,2.63
2018-09-23T23:02:30.127Z,0.80
2018-09-23T23:05:04.800Z,1.17
2018-09-23T23:07:39.416Z,1.90
2018-09-23T23:10:13.618Z,1.23
2018-09-23T23:12:47.490Z,0.57
2018-09-23T23:15:21.812Z,0.40
2018-09-23T23:17:55.889Z,1.63
2018-09-23T23:20:29.845Z,0.27
2018-09-23T23:23:03.993Z,0.20
2018-09-23T23:25:38.105Z,1.67
2018-09-23T23:28:12.169Z,1.47
2018-09-23T23:30:46.832Z,1.17
2018-09-23T23:33:21.724Z,0.77
2018-09-23T23:35:55.792Z,0.63
2018-09-23T23:38:29.780Z,1.70
2018-09-23T23:41:05.460Z,0.40
2018-09-23T23:43:39.554Z,1.47
2018-09-23T23:46:13.588Z,0.63
2018-09-23T23:48:47.611Z,0.87
2018-09-23T23:51:21.685Z,0.80
2018-09-23T23:53:55.784Z,1.93
2018-09-23T23:56:29.828Z,0.50
2018-09-23T23:59:03.813Z,0.50
